sensor_id;sensor_type;location;lat;lon;timestamp;P1;durP1;ratioP1;P2;durP2;ratioP2
982;SDS011;480;48.124;11.578;2022-08-21T00:00:08;1.60;;;1.50;;
982;SDS011;480;48.124;11.578;2022-08-21T00:02:43;2.23;;;1.80;;
982;SDS011;480;48.124;11.578;2022-08-21T00:05:12;2.47;;;1.40;;
982;SDS011;480;48.124;11.578;2022-08-21T00:07:40;2.53;;;1.73;;
982;SDS011;480;48.124;11.578;2022-08-21T00:10:08;1.70;;;1.60;;
982;SDS011;480;48.124;11.578;2022-08-21T00:12:35;1.80;;;1.70;;
982;SDS011;480;48.124;11.578;2022-08-21T00:15:03;1.50;;;1.33;;
982;SDS011;480;48.124;11.578;2022-08-21T00:17:31;1.70;;;1.60;;
982;SDS011;480;48.124;11.578;2022-08-21T00:19:58;2.20;;;2.00;;
982;SDS011;480;48.124;11.578;2022-08-21T00:22:26;2.63;;;1.23;;
982;SDS011;480;48.124;11.578;2022-08-21T00:24:53;1.60;;;1.50;;
982;SDS011;480;48.124;11.578;2022-08-21T00:27:20;2.20;;;1.70;;
982;SDS011;480;48.124;11.578;2022-08-21T00:29:48;2.33;;;1.53;;
982;SDS011;480;48.124;11.578;2022-08-21T00:32:19;2.87;;;1.50;;
982;SDS011;480;48.124;11.578;2022-08-21T00:34:47;1.80;;;1.60;;
982;SDS011;480;48.124;11.578;2022-08-21T00:37:14;1.87;;;1.77;;
982;SDS011;480;48.124;11.578;2022-08-21T00:39:42;2.00;;;1.60;;
982;SDS011;480;48.124;11.578;2022-08-21T00:42:10;2.20;;;2.00;;
982;SDS011;480;48.124;11.578;2022-08-21T00:44:40;1.33;;;1.30;;
982;SDS011;480;48.124;11.578;2022-08-21T00:47:07;1.70;;;1.60;;
982;SDS011;480;48.124;11.578;2022-08-21T00:49:34;1.97;;;1.80;;
982;SDS011;480;48.124;11.578;2022-08-21T00:52:02;2.23;;;1.80;;
982;SDS011;480;48.124;11.578;2022-08-21T00:54:30;1.43;;;1.33;;
982;SDS011;480;48.124;11.578;2022-08-21T00:57:01;1.60;;;1.57;;
982;SDS011;480;48.124;11.578;2022-08-21T00:59:34;1.80;;;1.70;;
982;SDS011;480;48.124;11.578;2022-08-21T01:02:04;1.60;;;1.50;;
982;SDS011;480;48.124;11.578;2022-08-21T01:04:33;1.70;;;1.60;;
982;SDS011;480;48.124;11.578;2022-08-21T01:07:00;4.20;;;1.77;;
982;SDS011;480;48.124;11.578;2022-08-21T01:09:27;1.57;;;1.47;;
982;SDS011;480;48.124;11.578;2022-08-21T01:11:54;1.67;;;1.57;;
982;SDS011;480;48.124;11.578;2022-08-21T01:14:23;3.03;;;1.63;;
982;SDS011;480;48.124;11.578;2022-08-21T01:16:51;1.10;;;1.10;;
982;SDS011;480;48.124;11.578;2022-08-21T01:19:20;1.97;;;1.60;;
982;SDS011;480;48.124;11.578;2022-08-21T01:21:49;1.73;;;1.43;;
982;SDS011;480;48.124;11.578;2022-08-21T01:24:17;1.50;;;1.40;;
982;SDS011;480;48.124;11.578;2022-08-21T01:26:44;1.80;;;1.70;;
982;SDS011;480;48.124;11.578;2022-08-21T01:29:13;2.97;;;1.63;;
982;SDS011;480;48.124;11.578;2022-08-21T01:31:47;1.50;;;1.30;;
982;SDS011;480;48.124;11.578;2022-08-21T01:34:14;1.83;;;1.70;;
982;SDS011;480;48.124;11.578;2022-08-21T01:36:42;2.43;;;1.67;;
982;SDS011;480;48.124;11.578;2022-08-21T01:39:12;1.53;;;1.23;;
982;SDS011;480;48.124;11.578;2022-08-21T01:41:40;1.50;;;1.40;;
982;SDS011;480;48.124;11.578;2022-08-21T01:44:07;1.67;;;1.57;;
982;SDS011;480;48.124;11.578;2022-08-21T01:46:34;1.13;;;1.10;;
982;SDS011;480;48.124;11.578;2022-08-21T01:49:01;1.60;;;1.50;;
982;SDS011;480;48.124;11.578;2022-08-21T01:51:28;1.40;;;1.30;;
982;SDS011;480;48.124;11.578;2022-08-21T01:53:55;1.70;;;1.50;;
982;SDS011;480;48.124;11.578;2022-08-21T01:56:24;1.43;;;1.33;;
982;SDS011;480;48.124;11.578;2022-08-21T01:58:52;1.63;;;1.53;;
982;SDS011;480;48.124;11.578;2022-08-21T02:01:20;1.23;;;1.00;;
982;SDS011;480;48.124;11.578;2022-08-21T02:03:47;1.77;;;1.67;;
982;SDS011;480;48.124;11.578;2022-08-21T02:06:15;2.03;;;1.80;;
982;SDS011;480;48.124;11.578;2022-08-21T02:08:43;1.73;;;1.63;;
982;SDS011;480;48.124;11.578;2022-08-21T02:11:10;1.80;;;1.70;;
982;SDS011;480;48.124;11.578;2022-08-21T02:13:39;1.30;;;1.20;;
982;SDS011;480;48.124;11.578;2022-08-21T02:16:06;1.60;;;1.50;;
982;SDS011;480;48.124;11.578;2022-08-21T02:18:33;1.67;;;1.57;;
982;SDS011;480;48.124;11.578;2022-08-21T02:21:01;2.20;;;1.83;;
982;SDS011;480;48.124;11.578;2022-08-21T02:23:29;2.20;;;2.10;;
982;SDS011;480;48.124;11.578;2022-08-21T02:25:56;1.80;;;1.70;;
982;SDS011;480;48.124;11.578;2022-08-21T02:28:24;1.43;;;1.33;;
982;SDS011;480;48.124;11.578;2022-08-21T02:30:53;1.60;;;1.50;;
982;SDS011;480;48.124;11.578;2022-08-21T02:33:21;1.87;;;1.77;;
982;SDS011;480;48.124;11.578;2022-08-21T02:35:49;2.20;;;1.97;;
982;SDS011;480;48.124;11.578;2022-08-21T02:38:17;2.30;;;1.73;;
982;SDS011;480;48.124;11.578;2022-08-21T02:40:48;1.90;;;1.80;;
982;SDS011;480;48.124;11.578;2022-08-21T02:43:16;1.93;;;1.83;;
982;SDS011;480;48.124;11.578;2022-08-21T02:45:43;1.40;;;1.30;;
982;SDS011;480;48.124;11.578;2022-08-21T02:48:13;2.00;;;1.90;;
982;SDS011;480;48.124;11.578;2022-08-21T02:50:43;1.13;;;1.03;;
982;SDS011;480;48.124;11.578;2022-08-21T02:53:12;2.10;;;1.33;;
982;SDS011;480;48.124;11.578;2022-08-21T02:55:41;1.97;;;1.87;;
982;SDS011;480;48.124;11.578;2022-08-21T02:58:10;1.60;;;1.50;;
982;SDS011;480;48.124;11.578;2022-08-21T03:00:38;2.20;;;2.00;;
982;SDS011;480;48.124;11.578;2022-08-21T03:03:06;1.50;;;1.40;;
982;SDS011;480;48.124;11.578;2022-08-21T03:05:35;1.70;;;1.60;;
982;SDS011;480;48.124;11.578;2022-08-21T03:08:04;2.00;;;1.90;;
982;SDS011;480;48.124;11.578;2022-08-21T03:10:34;3.50;;;1.73;;
982;SDS011;480;48.124;11.578;2022-08-21T03:13:02;1.07;;;0.97;;
982;SDS011;480;48.124;11.578;2022-08-21T03:15:29;1.60;;;1.50;;
982;SDS011;480;48.124;11.578;2022-08-21T03:17:56;3.83;;;1.83;;
982;SDS011;480;48.124;11.578;2022-08-21T03:20:25;1.20;;;1.20;;
982;SDS011;480;48.124;11.578;2022-08-21T03:22:55;2.03;;;1.87;;
982;SDS011;480;48.124;11.578;2022-08-21T03:25:22;1.77;;;1.67;;
982;SDS011;480;48.124;11.578;2022-08-21T03:27:51;1.60;;;1.50;;
982;SDS011;480;48.124;11.578;2022-08-21T03:30:19;2.20;;;2.00;;
982;SDS011;480;48.124;11.578;2022-08-21T03:32:47;1.90;;;1.80;;
982;SDS011;480;48.124;11.578;2022-08-21T03:35:15;2.07;;;1.93;;
982;SDS011;480;48.124;11.578;2022-08-21T03:37:43;2.30;;;2.10;;
982;SDS011;480;48.124;11.578;2022-08-21T03:40:13;2.17;;;2.07;;
982;SDS011;480;48.124;11.578;2022-08-21T03:42:42;1.90;;;1.80;;
982;SDS011;480;48.124;11.578;2022-08-21T03:45:12;2.40;;;2.20;;
982;SDS011;480;48.124;11.578;2022-08-21T03:47:50;1.57;;;1.47;;
982;SDS011;480;48.124;11.578;2022-08-21T03:50:19;1.40;;;1.40;;
982;SDS011;480;48.124;11.578;2022-08-21T03:52:46;1.63;;;1.53;;
982;SDS011;480;48.124;11.578;2022-08-21T03:55:14;1.40;;;1.30;;
982;SDS011;480;48.124;11.578;2022-08-21T03:57:41;2.20;;;1.90;;
982;SDS011;480;48.124;11.578;2022-08-21T04:00:09;2.13;;;1.90;;
982;SDS011;480;48.124;11.578;2022-08-21T04:02:38;1.77;;;1.67;;
982;SDS011;480;48.124;11.578;2022-08-21T04:05:06;2.10;;;2.00;;
982;SDS011;480;48.124;11.578;2022-08-21T04:07:33;2.77;;;2.30;;
982;SDS011;480;48.124;11.578;2022-08-21T04:10:01;1.53;;;1.43;;
982;SDS011;480;48.124;11.578;2022-08-21T04:12:30;1.80;;;1.70;;
982;SDS011;480;48.124;11.578;2022-08-21T04:14:57;1.53;;;1.43;;
982;SDS011;480;48.124;11.578;2022-08-21T04:17:26;2.50;;;2.40;;
982;SDS011;480;48.124;11.578;2022-08-21T04:19:55;2.00;;;1.90;;
982;SDS011;480;48.124;11.578;2022-08-21T04:22:22;1.60;;;1.50;;
982;SDS011;480;48.124;11.578;2022-08-21T04:24:49;1.80;;;1.40;;
982;SDS011;480;48.124;11.578;2022-08-21T04:27:16;2.10;;;2.00;;
982;SDS011;480;48.124;11.578;2022-08-21T04:29:44;2.67;;;1.77;;
982;SDS011;480;48.124;11.578;2022-08-21T04:32:12;2.50;;;2.10;;
982;SDS011;480;48.124;11.578;2022-08-21T04:34:39;1.87;;;1.77;;
982;SDS011;480;48.124;11.578;2022-08-21T04:37:06;1.47;;;1.40;;
982;SDS011;480;48.124;11.578;2022-08-21T04:39:33;1.37;;;1.23;;
982;SDS011;480;48.124;11.578;2022-08-21T04:42:00;2.03;;;1.83;;
982;SDS011;480;48.124;11.578;2022-08-21T04:44:27;1.90;;;1.77;;
982;SDS011;480;48.124;11.578;2022-08-21T04:46:56;1.90;;;1.80;;
982;SDS011;480;48.124;11.578;2022-08-21T04:49:23;1.63;;;1.40;;
982;SDS011;480;48.124;11.578;2022-08-21T04:51:50;1.97;;;1.67;;
982;SDS011;480;48.124;11.578;2022-08-21T04:54:17;1.70;;;1.60;;
982;SDS011;480;48.124;11.578;2022-08-21T04:56:49;1.70;;;1.60;;
982;SDS011;480;48.124;11.578;2022-08-21T04:59:21;1.33;;;1.23;;
982;SDS011;480;48.124;11.578;2022-08-21T05:01:50;2.67;;;1.77;;
982;SDS011;480;48.124;11.578;2022-08-21T05:04:21;2.70;;;2.50;;
982;SDS011;480;48.124;11.578;2022-08-21T05:06:51;2.73;;;1.77;;
982;SDS011;480;48.124;11.578;2022-08-21T05:09:20;1.70;;;1.60;;
982;SDS011;480;48.124;11.578;2022-08-21T05:11:49;2.33;;;1.70;;
982;SDS011;480;48.124;11.578;2022-08-21T05:14:17;1.67;;;1.57;;
982;SDS011;480;48.124;11.578;2022-08-21T05:16:45;2.40;;;2.00;;
982;SDS011;480;48.124;11.578;2022-08-21T05:19:12;1.80;;;1.70;;
982;SDS011;480;48.124;11.578;2022-08-21T05:21:42;1.80;;;1.70;;
982;SDS011;480;48.124;11.578;2022-08-21T05:24:10;1.90;;;1.60;;
982;SDS011;480;48.124;11.578;2022-08-21T05:26:37;2.23;;;2.07;;
982;SDS011;480;48.124;11.578;2022-08-21T05:29:05;1.80;;;1.70;;
982;SDS011;480;48.124;11.578;2022-08-21T05:31:32;1.83;;;1.73;;
982;SDS011;480;48.124;11.578;2022-08-21T05:33:59;1.60;;;1.50;;
982;SDS011;480;48.124;11.578;2022-08-21T05:36:26;2.30;;;2.20;;
982;SDS011;480;48.124;11.578;2022-08-21T05:38:55;1.77;;;1.47;;
982;SDS011;480;48.124;11.578;2022-08-21T05:41:22;2.43;;;2.23;;
982;SDS011;480;48.124;11.578;2022-08-21T05:43:49;1.60;;;1.50;;
982;SDS011;480;48.124;11.578;2022-08-21T05:46:16;1.47;;;1.37;;
982;SDS011;480;48.124;11.578;2022-08-21T05:48:43;1.60;;;1.50;;
982;SDS011;480;48.124;11.578;2022-08-21T05:51:10;1.67;;;1.57;;
982;SDS011;480;48.124;11.578;2022-08-21T05:53:40;1.53;;;1.43;;
982;SDS011;480;48.124;11.578;2022-08-21T05:56:09;2.40;;;2.20;;
982;SDS011;480;48.124;11.578;2022-08-21T05:58:38;1.70;;;1.43;;
982;SDS011;480;48.124;11.578;2022-08-21T06:01:05;2.53;;;2.20;;
982;SDS011;480;48.124;11.578;2022-08-21T06:03:36;2.20;;;2.00;;
982;SDS011;480;48.124;11.578;2022-08-21T06:06:08;1.50;;;1.40;;
982;SDS011;480;48.124;11.578;2022-08-21T06:08:36;1.93;;;1.73;;
982;SDS011;480;48.124;11.578;2022-08-21T06:11:03;1.60;;;1.50;;
982;SDS011;480;48.124;11.578;2022-08-21T06:13:33;2.40;;;1.47;;
982;SDS011;480;48.124;11.578;2022-08-21T06:16:02;3.03;;;1.97;;
982;SDS011;480;48.124;11.578;2022-08-21T06:18:31;2.23;;;2.00;;
982;SDS011;480;48.124;11.578;2022-08-21T06:20:58;2.53;;;1.73;;
982;SDS011;480;48.124;11.578;2022-08-21T06:23:25;2.43;;;1.83;;
982;SDS011;480;48.124;11.578;2022-08-21T06:25:53;1.77;;;1.67;;
982;SDS011;480;48.124;11.578;2022-08-21T06:28:20;1.87;;;1.77;;
982;SDS011;480;48.124;11.578;2022-08-21T06:30:48;1.77;;;1.67;;
982;SDS011;480;48.124;11.578;2022-08-21T06:33:15;2.00;;;1.57;;
982;SDS011;480;48.124;11.578;2022-08-21T06:35:42;1.60;;;1.50;;
982;SDS011;480;48.124;11.578;2022-08-21T06:38:09;2.63;;;1.77;;
982;SDS011;480;48.124;11.578;2022-08-21T06:40:37;2.27;;;2.07;;
982;SDS011;480;48.124;11.578;2022-08-21T06:43:05;1.77;;;1.67;;
982;SDS011;480;48.124;11.578;2022-08-21T06:45:33;1.77;;;1.67;;
982;SDS011;480;48.124;11.578;2022-08-21T06:48:02;1.87;;;1.77;;
982;SDS011;480;48.124;11.578;2022-08-21T06:50:30;2.37;;;2.20;;
982;SDS011;480;48.124;11.578;2022-08-21T06:53:01;1.90;;;1.30;;
982;SDS011;480;48.124;11.578;2022-08-21T06:55:29;1.80;;;1.70;;
982;SDS011;480;48.124;11.578;2022-08-21T06:57:56;2.40;;;1.93;;
982;SDS011;480;48.124;11.578;2022-08-21T07:00:24;2.60;;;2.40;;
982;SDS011;480;48.124;11.578;2022-08-21T07:02:51;2.30;;;2.10;;
982;SDS011;480;48.124;11.578;2022-08-21T07:05:20;2.23;;;2.03;;
982;SDS011;480;48.124;11.578;2022-08-21T07:07:47;1.67;;;1.57;;
982;SDS011;480;48.124;11.578;2022-08-21T07:10:14;5.00;;;2.50;;
982;SDS011;480;48.124;11.578;2022-08-21T07:12:42;1.70;;;1.60;;
982;SDS011;480;48.124;11.578;2022-08-21T07:15:09;2.50;;;1.93;;
982;SDS011;480;48.124;11.578;2022-08-21T07:17:37;4.20;;;2.50;;
982;SDS011;480;48.124;11.578;2022-08-21T07:20:04;2.30;;;2.13;;
982;SDS011;480;48.124;11.578;2022-08-21T07:22:33;2.40;;;1.97;;
982;SDS011;480;48.124;11.578;2022-08-21T07:25:02;2.17;;;2.00;;
982;SDS011;480;48.124;11.578;2022-08-21T07:27:30;2.97;;;2.77;;
982;SDS011;480;48.124;11.578;2022-08-21T07:29:57;2.40;;;2.20;;
982;SDS011;480;48.124;11.578;2022-08-21T07:32:24;2.53;;;2.10;;
982;SDS011;480;48.124;11.578;2022-08-21T07:34:52;2.70;;;2.50;;
982;SDS011;480;48.124;11.578;2022-08-21T07:37:19;3.00;;;2.67;;
982;SDS011;480;48.124;11.578;2022-08-21T07:39:47;2.83;;;2.10;;
982;SDS011;480;48.124;11.578;2022-08-21T07:42:16;2.60;;;2.40;;
982;SDS011;480;48.124;11.578;2022-08-21T07:44:43;3.20;;;2.90;;
982;SDS011;480;48.124;11.578;2022-08-21T07:47:10;2.13;;;2.00;;
982;SDS011;480;48.124;11.578;2022-08-21T07:49:37;2.80;;;2.60;;
982;SDS011;480;48.124;11.578;2022-08-21T07:52:04;2.80;;;2.07;;
982;SDS011;480;48.124;11.578;2022-08-21T07:54:32;3.33;;;2.70;;
982;SDS011;480;48.124;11.578;2022-08-21T07:57:00;3.00;;;2.70;;
982;SDS011;480;48.124;11.578;2022-08-21T07:59:27;3.83;;;2.80;;
982;SDS011;480;48.124;11.578;2022-08-21T08:01:55;2.87;;;2.60;;
982;SDS011;480;48.124;11.578;2022-08-21T08:04:22;3.47;;;3.20;;
982;SDS011;480;48.124;11.578;2022-08-21T08:06:51;3.87;;;3.47;;
982;SDS011;480;48.124;11.578;2022-08-21T08:09:18;3.63;;;3.00;;
982;SDS011;480;48.124;11.578;2022-08-21T08:11:45;3.40;;;3.10;;
982;SDS011;480;48.124;11.578;2022-08-21T08:14:14;3.30;;;2.97;;
982;SDS011;480;48.124;11.578;2022-08-21T08:16:42;3.50;;;3.20;;
982;SDS011;480;48.124;11.578;2022-08-21T08:19:09;3.50;;;3.30;;
982;SDS011;480;48.124;11.578;2022-08-21T08:21:36;3.90;;;3.60;;
982;SDS011;480;48.124;11.578;2022-08-21T08:24:03;8.13;;;3.20;;
982;SDS011;480;48.124;11.578;2022-08-21T08:26:31;3.70;;;3.40;;
982;SDS011;480;48.124;11.578;2022-08-21T08:28:58;4.00;;;3.37;;
982;SDS011;480;48.124;11.578;2022-08-21T08:31:26;3.13;;;2.93;;
982;SDS011;480;48.124;11.578;2022-08-21T08:33:53;3.70;;;3.23;;
982;SDS011;480;48.124;11.578;2022-08-21T08:36:20;3.73;;;3.43;;
982;SDS011;480;48.124;11.578;2022-08-21T08:38:58;4.00;;;3.00;;
982;SDS011;480;48.124;11.578;2022-08-21T08:41:26;5.23;;;4.20;;
982;SDS011;480;48.124;11.578;2022-08-21T08:43:57;4.13;;;3.77;;
982;SDS011;480;48.124;11.578;2022-08-21T08:46:33;3.13;;;2.83;;
982;SDS011;480;48.124;11.578;2022-08-21T08:49:06;3.30;;;3.10;;
982;SDS011;480;48.124;11.578;2022-08-21T08:51:39;5.13;;;4.53;;
982;SDS011;480;48.124;11.578;2022-08-21T08:54:11;4.57;;;4.17;;
982;SDS011;480;48.124;11.578;2022-08-21T08:56:41;4.97;;;3.23;;
982;SDS011;480;48.124;11.578;2022-08-21T08:59:13;3.50;;;3.27;;
982;SDS011;480;48.124;11.578;2022-08-21T09:01:44;4.00;;;3.70;;
982;SDS011;480;48.124;11.578;2022-08-21T09:04:12;3.90;;;3.37;;
982;SDS011;480;48.124;11.578;2022-08-21T09:06:48;3.77;;;3.27;;
982;SDS011;480;48.124;11.578;2022-08-21T09:09:28;5.10;;;3.80;;
982;SDS011;480;48.124;11.578;2022-08-21T09:12:04;3.10;;;2.90;;
982;SDS011;480;48.124;11.578;2022-08-21T09:14:43;4.20;;;3.80;;
982;SDS011;480;48.124;11.578;2022-08-21T09:17:26;4.10;;;3.37;;
982;SDS011;480;48.124;11.578;2022-08-21T09:20:09;3.53;;;3.30;;
982;SDS011;480;48.124;11.578;2022-08-21T09:22:47;4.03;;;3.73;;
982;SDS011;480;48.124;11.578;2022-08-21T09:25:26;3.40;;;3.10;;
982;SDS011;480;48.124;11.578;2022-08-21T09:27:57;7.03;;;3.40;;
982;SDS011;480;48.124;11.578;2022-08-21T09:30:27;3.63;;;3.40;;
982;SDS011;480;48.124;11.578;2022-08-21T09:32:58;4.57;;;4.17;;
982;SDS011;480;48.124;11.578;2022-08-21T09:35:25;3.50;;;3.20;;
982;SDS011;480;48.124;11.578;2022-08-21T09:37:53;3.30;;;3.03;;
982;SDS011;480;48.124;11.578;2022-08-21T09:40:26;3.70;;;3.10;;
982;SDS011;480;48.124;11.578;2022-08-21T09:42:58;3.87;;;3.57;;
982;SDS011;480;48.124;11.578;2022-08-21T09:45:28;3.40;;;3.10;;
982;SDS011;480;48.124;11.578;2022-08-21T09:47:56;3.03;;;2.83;;
982;SDS011;480;48.124;11.578;2022-08-21T09:50:35;4.07;;;3.37;;
982;SDS011;480;48.124;11.578;2022-08-21T09:53:02;2.60;;;2.40;;
982;SDS011;480;48.124;11.578;2022-08-21T09:55:31;3.07;;;2.87;;
982;SDS011;480;48.124;11.578;2022-08-21T09:58:18;2.93;;;2.73;;
982;SDS011;480;48.124;11.578;2022-08-21T10:00:55;4.27;;;2.10;;
982;SDS011;480;48.124;11.578;2022-08-21T10:03:26;2.90;;;2.70;;
982;SDS011;480;48.124;11.578;2022-08-21T10:05:56;4.10;;;3.50;;
982;SDS011;480;48.124;11.578;2022-08-21T10:08:26;2.70;;;2.50;;
982;SDS011;480;48.124;11.578;2022-08-21T10:10:55;3.70;;;3.30;;
982;SDS011;480;48.124;11.578;2022-08-21T10:13:30;2.80;;;2.60;;
982;SDS011;480;48.124;11.578;2022-08-21T10:16:11;2.87;;;2.60;;
982;SDS011;480;48.124;11.578;2022-08-21T10:18:52;2.60;;;2.47;;
982;SDS011;480;48.124;11.578;2022-08-21T10:21:30;3.60;;;3.30;;
982;SDS011;480;48.124;11.578;2022-08-21T10:24:05;3.27;;;3.00;;
982;SDS011;480;48.124;11.578;2022-08-21T10:26:41;2.67;;;2.47;;
982;SDS011;480;48.124;11.578;2022-08-21T10:29:22;2.57;;;2.33;;
982;SDS011;480;48.124;11.578;2022-08-21T10:32:06;2.70;;;2.50;;
982;SDS011;480;48.124;11.578;2022-08-21T10:34:41;3.03;;;2.73;;
982;SDS011;480;48.124;11.578;2022-08-21T10:37:18;2.00;;;1.90;;
982;SDS011;480;48.124;11.578;2022-08-21T10:39:56;2.60;;;2.40;;
982;SDS011;480;48.124;11.578;2022-08-21T10:42:34;3.27;;;2.97;;
982;SDS011;480;48.124;11.578;2022-08-21T10:45:09;2.87;;;2.67;;
982;SDS011;480;48.124;11.578;2022-08-21T10:47:45;3.33;;;3.03;;
982;SDS011;480;48.124;11.578;2022-08-21T10:50:19;2.80;;;2.60;;
982;SDS011;480;48.124;11.578;2022-08-21T10:53:04;3.83;;;2.93;;
982;SDS011;480;48.124;11.578;2022-08-21T10:55:48;2.60;;;2.40;;
982;SDS011;480;48.124;11.578;2022-08-21T10:58:22;2.83;;;2.63;;
982;SDS011;480;48.124;11.578;2022-08-21T11:00:55;2.90;;;2.70;;
982;SDS011;480;48.124;11.578;2022-08-21T11:03:29;2.73;;;2.50;;
982;SDS011;480;48.124;11.578;2022-08-21T11:06:02;2.57;;;2.37;;
982;SDS011;480;48.124;11.578;2022-08-21T11:08:35;2.70;;;2.50;;
982;SDS011;480;48.124;11.578;2022-08-21T11:11:06;2.67;;;2.47;;
982;SDS011;480;48.124;11.578;2022-08-21T11:13:38;3.50;;;2.70;;
982;SDS011;480;48.124;11.578;2022-08-21T11:16:10;2.73;;;2.50;;
982;SDS011;480;48.124;11.578;2022-08-21T11:18:45;2.83;;;2.63;;
982;SDS011;480;48.124;11.578;2022-08-21T11:21:25;3.37;;;3.10;;
982;SDS011;480;48.124;11.578;2022-08-21T11:23:57;2.60;;;2.20;;
982;SDS011;480;48.124;11.578;2022-08-21T11:26:30;3.07;;;2.77;;
982;SDS011;480;48.124;11.578;2022-08-21T11:29:04;2.67;;;2.57;;
982;SDS011;480;48.124;11.578;2022-08-21T11:31:40;2.80;;;2.60;;
982;SDS011;480;48.124;11.578;2022-08-21T11:34:21;2.93;;;2.60;;
982;SDS011;480;48.124;11.578;2022-08-21T11:37:05;2.97;;;2.77;;
982;SDS011;480;48.124;11.578;2022-08-21T11:39:40;4.30;;;3.30;;
982;SDS011;480;48.124;11.578;2022-08-21T11:42:15;2.63;;;2.43;;
982;SDS011;480;48.124;11.578;2022-08-21T11:44:52;3.00;;;2.80;;
982;SDS011;480;48.124;11.578;2022-08-21T11:47:30;2.23;;;2.13;;
982;SDS011;480;48.124;11.578;2022-08-21T11:50:11;3.90;;;2.00;;
982;SDS011;480;48.124;11.578;2022-08-21T11:52:43;2.53;;;2.33;;
982;SDS011;480;48.124;11.578;2022-08-21T11:55:15;2.83;;;2.63;;
982;SDS011;480;48.124;11.578;2022-08-21T11:57:46;3.03;;;2.83;;
982;SDS011;480;48.124;11.578;2022-08-21T12:00:19;2.40;;;2.20;;
982;SDS011;480;48.124;11.578;2022-08-21T12:02:51;2.70;;;2.30;;
982;SDS011;480;48.124;11.578;2022-08-21T12:05:25;3.17;;;2.90;;
982;SDS011;480;48.124;11.578;2022-08-21T12:08:03;2.87;;;2.67;;
982;SDS011;480;48.124;11.578;2022-08-21T12:10:33;2.47;;;2.27;;
982;SDS011;480;48.124;11.578;2022-08-21T12:13:07;2.43;;;2.23;;
982;SDS011;480;48.124;11.578;2022-08-21T12:15:36;2.77;;;2.50;;
982;SDS011;480;48.124;11.578;2022-08-21T12:18:05;2.97;;;2.77;;
982;SDS011;480;48.124;11.578;2022-08-21T12:20:35;2.50;;;2.30;;
982;SDS011;480;48.124;11.578;2022-08-21T12:23:15;3.03;;;2.60;;
982;SDS011;480;48.124;11.578;2022-08-21T12:25:44;4.43;;;2.57;;
982;SDS011;480;48.124;11.578;2022-08-21T12:28:15;2.80;;;2.60;;
982;SDS011;480;48.124;11.578;2022-08-21T12:30:48;2.97;;;2.77;;
982;SDS011;480;48.124;11.578;2022-08-21T12:33:19;2.20;;;2.00;;
982;SDS011;480;48.124;11.578;2022-08-21T12:35:50;2.80;;;2.60;;
982;SDS011;480;48.124;11.578;2022-08-21T12:38:21;2.57;;;2.37;;
982;SDS011;480;48.124;11.578;2022-08-21T12:40:53;2.60;;;2.30;;
982;SDS011;480;48.124;11.578;2022-08-21T12:43:25;2.43;;;2.23;;
982;SDS011;480;48.124;11.578;2022-08-21T12:45:55;2.80;;;2.50;;
982;SDS011;480;48.124;11.578;2022-08-21T12:48:26;2.97;;;2.77;;
982;SDS011;480;48.124;11.578;2022-08-21T12:50:58;3.37;;;3.07;;
982;SDS011;480;48.124;11.578;2022-08-21T12:53:35;3.43;;;2.70;;
982;SDS011;480;48.124;11.578;2022-08-21T12:56:08;2.57;;;2.37;;
982;SDS011;480;48.124;11.578;2022-08-21T12:58:39;2.87;;;2.67;;
982;SDS011;480;48.124;11.578;2022-08-21T13:01:07;2.80;;;2.60;;
982;SDS011;480;48.124;11.578;2022-08-21T13:03:39;3.73;;;2.30;;
982;SDS011;480;48.124;11.578;2022-08-21T13:06:07;3.20;;;2.20;;
982;SDS011;480;48.124;11.578;2022-08-21T13:08:42;3.30;;;2.53;;
982;SDS011;480;48.124;11.578;2022-08-21T13:11:11;3.17;;;2.97;;
982;SDS011;480;48.124;11.578;2022-08-21T13:13:42;2.97;;;2.67;;
982;SDS011;480;48.124;11.578;2022-08-21T13:16:09;2.57;;;2.37;;
982;SDS011;480;48.124;11.578;2022-08-21T13:18:39;2.93;;;2.73;;
982;SDS011;480;48.124;11.578;2022-08-21T13:21:21;3.13;;;2.93;;
982;SDS011;480;48.124;11.578;2022-08-21T13:23:55;2.03;;;1.90;;
982;SDS011;480;48.124;11.578;2022-08-21T13:26:37;2.73;;;2.47;;
982;SDS011;480;48.124;11.578;2022-08-21T13:29:06;2.73;;;2.53;;
982;SDS011;480;48.124;11.578;2022-08-21T13:31:36;2.70;;;2.50;;
982;SDS011;480;48.124;11.578;2022-08-21T13:34:07;2.80;;;2.60;;
982;SDS011;480;48.124;11.578;2022-08-21T13:36:37;4.37;;;2.60;;
982;SDS011;480;48.124;11.578;2022-08-21T13:39:10;3.53;;;3.23;;
982;SDS011;480;48.124;11.578;2022-08-21T13:41:39;2.60;;;2.40;;
982;SDS011;480;48.124;11.578;2022-08-21T13:44:14;4.63;;;2.30;;
982;SDS011;480;48.124;11.578;2022-08-21T13:46:43;2.77;;;2.57;;
982;SDS011;480;48.124;11.578;2022-08-21T13:49:12;3.10;;;2.80;;
982;SDS011;480;48.124;11.578;2022-08-21T13:51:42;2.90;;;2.57;;
982;SDS011;480;48.124;11.578;2022-08-21T13:54:22;3.07;;;2.70;;
982;SDS011;480;48.124;11.578;2022-08-21T13:56:52;4.23;;;3.93;;
982;SDS011;480;48.124;11.578;2022-08-21T13:59:26;2.80;;;2.60;;
982;SDS011;480;48.124;11.578;2022-08-21T14:01:55;2.40;;;2.20;;
982;SDS011;480;48.124;11.578;2022-08-21T14:04:26;2.87;;;2.67;;
982;SDS011;480;48.124;11.578;2022-08-21T14:06:58;2.30;;;2.17;;
982;SDS011;480;48.124;11.578;2022-08-21T14:09:28;3.70;;;2.87;;
982;SDS011;480;48.124;11.578;2022-08-21T14:11:57;2.90;;;2.70;;
982;SDS011;480;48.124;11.578;2022-08-21T14:14:28;2.40;;;2.20;;
982;SDS011;480;48.124;11.578;2022-08-21T14:16:57;3.70;;;2.50;;
982;SDS011;480;48.124;11.578;2022-08-21T14:19:27;3.10;;;2.37;;
982;SDS011;480;48.124;11.578;2022-08-21T14:22:12;2.63;;;2.10;;
982;SDS011;480;48.124;11.578;2022-08-21T14:24:50;4.10;;;3.37;;
982;SDS011;480;48.124;11.578;2022-08-21T14:27:27;2.60;;;2.40;;
982;SDS011;480;48.124;11.578;2022-08-21T14:29:58;2.57;;;2.47;;
982;SDS011;480;48.124;11.578;2022-08-21T14:32:27;3.10;;;2.43;;
982;SDS011;480;48.124;11.578;2022-08-21T14:34:57;2.90;;;2.70;;
982;SDS011;480;48.124;11.578;2022-08-21T14:37:24;2.80;;;2.60;;
982;SDS011;480;48.124;11.578;2022-08-21T14:39:53;2.67;;;2.47;;
982;SDS011;480;48.124;11.578;2022-08-21T14:42:20;4.27;;;2.50;;
982;SDS011;480;48.124;11.578;2022-08-21T14:44:47;3.27;;;2.60;;
982;SDS011;480;48.124;11.578;2022-08-21T14:47:14;2.70;;;2.50;;
982;SDS011;480;48.124;11.578;2022-08-21T14:49:41;2.87;;;2.67;;
982;SDS011;480;48.124;11.578;2022-08-21T14:52:08;3.23;;;2.80;;
982;SDS011;480;48.124;11.578;2022-08-21T14:54:36;2.90;;;2.60;;
982;SDS011;480;48.124;11.578;2022-08-21T14:57:06;2.00;;;1.90;;
982;SDS011;480;48.124;11.578;2022-08-21T14:59:34;3.20;;;2.90;;
982;SDS011;480;48.124;11.578;2022-08-21T15:02:02;2.97;;;2.77;;
982;SDS011;480;48.124;11.578;2022-08-21T15:04:30;2.43;;;2.33;;
982;SDS011;480;48.124;11.578;2022-08-21T15:06:57;5.60;;;2.70;;
982;SDS011;480;48.124;11.578;2022-08-21T15:09:24;2.40;;;2.20;;
982;SDS011;480;48.124;11.578;2022-08-21T15:11:52;2.90;;;2.70;;
982;SDS011;480;48.124;11.578;2022-08-21T15:14:23;3.03;;;2.40;;
982;SDS011;480;48.124;11.578;2022-08-21T15:16:52;3.27;;;3.00;;
982;SDS011;480;48.124;11.578;2022-08-21T15:19:19;2.87;;;2.67;;
982;SDS011;480;48.124;11.578;2022-08-21T15:21:47;3.70;;;2.80;;
982;SDS011;480;48.124;11.578;2022-08-21T15:24:14;2.80;;;2.60;;
982;SDS011;480;48.124;11.578;2022-08-21T15:26:43;3.30;;;3.10;;
982;SDS011;480;48.124;11.578;2022-08-21T15:29:11;2.97;;;2.67;;
982;SDS011;480;48.124;11.578;2022-08-21T15:31:50;3.40;;;2.83;;
982;SDS011;480;48.124;11.578;2022-08-21T15:34:18;2.63;;;2.43;;
982;SDS011;480;48.124;11.578;2022-08-21T15:36:46;3.60;;;3.30;;
982;SDS011;480;48.124;11.578;2022-08-21T15:39:13;4.40;;;3.30;;
982;SDS011;480;48.124;11.578;2022-08-21T15:41:40;3.20;;;2.97;;
982;SDS011;480;48.124;11.578;2022-08-21T15:44:08;3.20;;;2.93;;
982;SDS011;480;48.124;11.578;2022-08-21T15:46:36;4.23;;;3.20;;